Pinkney, North Carolina
Current Conditions -  °F | °C
As of 10:54 AM on Thursday 29 Jan 2015 (Local Time) from KAKH Reporting Station
Clear Clear  
Wind Chill: 39°   Ceiling: Unl
Heat Index: 43°   Visibility: 10mi
Dew Point: 22°   Wind: 6mph
Humidity: 43%   Direction: 230°SW
Pressure: 30.29"   Gusts: NA
Location:  35.2205°N, 81.2501°W
Report Text: KAKH 291554Z AUTO 23005KT 10SM CLR 06/M06 A3029 RMK AO2 SLP263 T00611056
Loading
Personal Weather Stations






























Interactive Weather Map New forecast layout! Learn more

10-Day Weather Forecast

Advertisements
Track Severe Weather on mobile